Flight Track Log - Related Links

Times and Time Zones

All times are in EDT time to prevent confusion due to time zone crossing. See the SWA2353 flight status page for this flight to view local times or setup timezone preferences in your user account.

Time Position Orientation Groundspeed Altitude Reporting Facility
EDT Latitude Longitude Course Direction KTS MPH feet Rate Location/Type
Fri 11:13:27 PM 38.7833 -90.3833 82° East 186 214 3,700  Level Gateway (St. Louis) TRACON
Fri 11:13:42 PM 38.8003 -90.3775 15° North 224 258 4,100 3,237 Climbing Kansas City Center
Fri 11:14:43 PM 38.8064 -90.2847 85° East 266 306 7,800 3,492 Climbing Kansas City Center
Fri 11:15:44 PM 38.8033 -90.1769 92° East 292 336 11,200 3,393 Climbing Kansas City Center
Fri 11:16:45 PM 38.8017 -90.0406 91° East 369 425 14,700 3,492 Climbing Kansas City Center
Fri 11:17:46 PM 38.7992 -89.8944 91° East 400 460 18,300 3,148 Climbing Kansas City Center
Fri 11:18:00 PM 38.7679 -89.6385 82° East  Level FlightAware Approximate
Fri 11:18:47 PM 38.7972 -89.7422 91° East 418 481 21,100  Level Kansas City Center
Fri 11:20:50 PM 38.8025 -89.4222 89° East 471 542 26,600 2,576 Climbing Indianapolis Center
Fri 11:21:51 PM 38.8242 -89.2511 81° East 481 554 29,000 2,164 Climbing Indianapolis Center
Fri 11:22:52 PM 38.8472 -89.0753 80° East 495 570 31,000 984 Climbing Indianapolis Center
Fri 11:23:53 PM 38.8836 -88.8669 77° East 496 571 31,000  Level Indianapolis Center
Fri 11:24:54 PM 38.9142 -88.6947 77° East 494 568 31,000  Level Indianapolis Center
Fri 11:25:55 PM 38.9444 -88.5200 77° East 497 572 31,000 1,033 Level Indianapolis Center
Fri 11:26:56 PM 38.9756 -88.3456 77° East 498 573 33,100 2,016 Climbing Indianapolis Center
Fri 11:27:57 PM 39.0039 -88.1747 78° East 489 563 35,100 1,672 Climbing Indianapolis Center
Fri 11:28:58 PM 39.0342 -87.9997 77° East 496 571 36,500 1,328 Climbing Indianapolis Center
Fri 11:29:59 PM 39.0650 -87.8189 78° East 510 587 37,800 1,426 Climbing Indianapolis Center
Fri 11:31:00 PM 39.0953 -87.6386 78° East 512 589 39,400 1,475 Climbing Indianapolis Center
Fri 11:32:01 PM 39.1231 -87.4717 78° East 509 586 40,800 787 Climbing Indianapolis Center
Fri 11:33:02 PM 39.1525 -87.2942 78° East 508 585 41,000 98 Climbing Indianapolis Center
Fri 11:34:03 PM 39.1806 -87.1178 78° East 507 583 41,000  Level Indianapolis Center
Fri 11:35:04 PM 39.2092 -86.9403 78° East 510 587 41,000  Level Indianapolis Center
Fri 11:36:05 PM 39.2422 -86.7286 79° East 508 585 41,000  Level Indianapolis Center
Fri 11:37:06 PM 39.2703 -86.5522 78° East 509 586 41,000  Level Indianapolis Center
Fri 11:38:07 PM 39.2975 -86.3747 79° East 511 588 41,000  Level Indianapolis Center
Fri 11:39:08 PM 39.3247 -86.1981 79° East 509 586 41,000  Level Indianapolis Center
Fri 11:40:09 PM 39.3514 -86.0217 79° East 510 587 41,000  Level Indianapolis Center
Fri 11:41:10 PM 39.3783 -85.8442 79° East 509 586 41,000  Level Indianapolis Center
Fri 11:42:11 PM 39.4053 -85.6672 79° East 508 585 41,000  Level Indianapolis Center
Fri 11:43:12 PM 39.4372 -85.4525 79° East 510 587 41,000  Level Indianapolis Center
Fri 11:44:13 PM 39.4631 -85.2731 79° East 512 589 41,000  Level Indianapolis Center
Fri 11:45:14 PM 39.4881 -85.0925 80° East 513 590 41,000  Level Indianapolis Center
Fri 11:46:15 PM 39.5139 -84.9164 79° East 504 580 41,000  Level Indianapolis Center
Fri 11:47:16 PM 39.5389 -84.7383 80° East 503 579 41,000  Level Indianapolis Center
Fri 11:48:16 PM 39.5636 -84.5589 80° East 501 577 41,000  Level Indianapolis Center
Fri 11:49:17 PM 39.5886 -84.3800 80° East 501 577 41,000  Level Indianapolis Center
Fri 11:50:18 PM 39.6122 -84.2014 80° East 498 573 41,000  Level Indianapolis Center
Fri 11:51:19 PM 39.6353 -84.0231 80° East 498 573 41,000  Level Indianapolis Center
Fri 11:52:20 PM 39.6592 -83.8447 80° East 499 574 41,000  Level Indianapolis Center
Fri 11:53:21 PM 39.6831 -83.6650 80° East 503 579 41,000  Level Indianapolis Center
Fri 11:54:22 PM 39.7050 -83.4881 81° East 502 578 41,000  Level Indianapolis Center
Fri 11:55:23 PM 39.7314 -83.2836 80° East 499 574 41,000  Level Indianapolis Center
Fri 11:56:24 PM 39.7503 -83.1061 82° East 497 572 41,000  Level Indianapolis Center
Fri 11:57:25 PM 39.7475 -82.9269 91° East 495 570 41,000  Level Indianapolis Center
Fri 11:58:25 PM 39.7467 -82.7456 90° East 496 571 41,000  Level Indianapolis Center
Fri 11:59:26 PM 39.7450 -82.5647 91° East 497 572 41,000  Level Indianapolis Center
Sat 12:00:27 AM 39.7431 -82.3814 91° East 502 578 41,000  Level Indianapolis Center
Sat 12:01:28 AM 39.7406 -82.2008 91° East 499 574 41,000  Level Indianapolis Center
Sat 12:02:29 AM 39.7375 -82.0183 91° East 501 577 41,000  Level Indianapolis Center
Sat 12:03:30 AM 39.7358 -81.8389 91° East 495 570 41,000  Level Indianapolis Center
Sat 12:04:31 AM 39.7325 -81.6569 91° East 499 574 41,000  Level Indianapolis Center
Sat 12:05:32 AM 39.7294 -81.4783 91° East 492 566 41,000 -298 Level Indianapolis Center
Sat 12:06:32 AM 39.7256 -81.2897 91° East 495 570 40,400 -694 Descending Indianapolis Center
Sat 12:07:33 AM 39.7261 -81.1228 90° East 496 571 39,600 -843 Descending Cleveland Center
Sat 12:08:33 AM 39.7206 -80.9339 92° East 501 577 38,700 -942 Descending Cleveland Center
Sat 12:09:34 AM 39.7169 -80.7503 91° East 501 577 37,700 -1,150 Descending Cleveland Center
Sat 12:10:33 AM 39.7128 -80.5642 92° East 506 582 36,400 -1,613 Descending Cleveland Center
Sat 12:11:33 AM 39.7083 -80.3806 92° East 506 582 34,500 -1,587 Descending Cleveland Center
Sat 12:12:34 AM 39.7017 -80.2028 93° East 506 582 33,200 -529 Descending Cleveland Center
Sat 12:14:23 AM 39.6917 -79.8794 92° East 499 574 33,000 -71 Descending Washington Center
Sat 12:15:24 AM 39.6853 -79.7011 93° East 499 574 33,000 -51 Level Washington Center
Sat 12:16:21 AM 39.6789 -79.5228 93° East 499 574 32,900 -555 Descending Washington Center
Sat 12:17:23 AM 39.6508 -79.3514 102° East 499 574 31,900 -1,041 Descending Washington Center
Sat 12:18:22 AM 39.6172 -79.1583 103° East 499 574 30,800 -1,017 Descending Washington Center
Sat 12:19:21 AM 39.5886 -78.9981 103° East 493 567 29,900 -942 Descending Washington Center
Sat 12:20:23 AM 39.5600 -78.8244 102° East 493 567 28,900 -1,850 Descending Washington Center
Sat 12:21:21 AM 39.5289 -78.6561 103° East 487 560 26,200 -3,529 Descending Washington Center
Sat 12:22:22 AM 39.5017 -78.4936 102° East 469 540 21,900 -4,131 Descending Washington Center
Sat 12:23:23 AM 39.4683 -78.3175 104° East 462 532 17,800 -3,429 Descending Washington Center
Sat 12:24:21 AM 39.4403 -78.1633 103° East 451 519 15,100 -1,424 Descending Washington Center
Sat 12:25:21 AM 39.4122 -78.0119 103° East 438 504 15,000 -49 Descending Washington Center
Sat 12:26:23 AM 39.3881 -77.8633 102° East 427 491 15,000  Level Washington Center
Sat 12:27:21 AM 39.3992 -77.7133 84° East 421 484 15,000 -50 Level Washington Center
Sat 12:28:23 AM 39.4183 -77.5581 81° East 421 484 14,900 -942 Descending Washington Center
Sat 12:29:22 AM 39.4083 -77.4047 95° East 420 483 13,100 -2,400 Descending Washington Center
Sat 12:29:58 AM 39.4000 -77.3167 97° East 420 483 11,100 -1,680 Descending Potomac TRACON
Sat 12:31:52 AM 39.3333 -77.0667 109° East 335 386 8,900 -1,233 Descending Potomac TRACON
Sat 12:32:58 AM 39.2833 -76.9667 123° Southeast 315 362 7,400 -864 Descending Potomac TRACON
Sat 12:34:04 AM 39.2333 -76.8667 123° Southeast 292 336 7,000 -762 Descending Potomac TRACON
Sat 12:35:04 AM 39.1833 -76.7833 128° Southeast 299 344 5,800 -1,300 Descending Potomac TRACON
Sat 12:36:04 AM 39.1333 -76.7167 134° Southeast 274 315 4,400 -1,100 Descending Potomac TRACON
Sat 12:37:04 AM 39.0833 -76.6500 134° Southeast 196 226 3,600 -1,200 Descending Potomac TRACON
Sat 12:38:04 AM 39.1000 -76.6167 57° Northeast 185 213 2,000 -1,300 Descending Potomac TRACON
Sat 12:39:04 AM 39.1333 -76.6333 339° North 128 147 1,000 -1,000 Descending Potomac TRACON
Sat 12:41:00 AM 39.1667 -76.6667 351° North  Level FlightAware Approximate
Sat 12:48:00 AM 39.1754 -76.6683 351° North  Level Estimated
Sat 12:49:00 AM 39.1754 -76.6683 351° North  Level Estimated
Sat 12:50:00 AM 39.1754 -76.6683 351° North  Level Estimated
Sat 12:51:00 AM 39.1754 -76.6683 351° North  Level Estimated

Login

Don't have an account? Register now (free) for customized features, flight alerts, and more!